Time;durP1;ratioP1;P1;durP2;ratioP2;P2;SDS_P1;SDS_P2;PMS_P1;PMS_P2;Temp;Humidity;BMP_temperature;BMP_pressure;BME280_temperature;BME280_humidity;BME280_pressure;Samples;Min_cycle;Max_cycle;Signal;HPM_P1;HPM_P2
2022/10/02 00:00:06;;;;;;;10.60;8.00;;;;;;;17.05;91.98;98837.78;5012528;28;20038;-86
2022/10/02 00:02:56;;;;;;;17.10;8.20;;;;;;;17.15;91.45;98865.28;5006310;28;20066;-86
2022/10/02 00:05:39;;;;;;;14.53;8.17;;;;;;;17.09;92.92;98875.34;5008766;28;20037;-87
2022/10/02 00:08:11;;;;;;;11.85;8.63;;;;;;;16.97;92.48;98865.94;5007319;28;20492;-87
2022/10/02 00:10:48;;;;;;;10.23;8.45;;;;;;;17.02;91.30;98828.06;5011123;28;20090;-87
2022/10/02 00:13:32;;;;;;;9.63;7.15;;;;;;;16.87;92.55;98835.63;5011799;28;20025;-87
2022/10/02 00:15:57;;;;;;;13.32;8.30;;;;;;;16.93;93.03;98841.69;5011259;28;20390;-87
2022/10/02 00:18:29;;;;;;;11.77;7.70;;;;;;;16.91;93.69;98861.06;5011830;28;20049;-86
2022/10/02 00:21:32;;;;;;;12.48;7.57;;;;;;;16.90;93.74;98843.31;5011088;28;20029;-87
2022/10/02 00:23:59;;;;;;;20.55;7.03;;;;;;;17.13;93.03;98842.25;4993127;28;20034;-87
2022/10/02 00:27:03;;;;;;;13.43;7.90;;;;;;;17.33;92.10;98802.41;4993199;28;20104;-86
2022/10/02 00:29:41;;;;;;;10.18;7.35;;;;;;;17.50;90.19;98800.84;4952166;29;20177;-87
2022/10/02 00:32:40;;;;;;;9.77;7.55;;;;;;;17.31;90.94;98802.00;4952496;29;20496;-86
2022/10/02 00:35:33;;;;;;;12.45;7.78;;;;;;;17.23;92.59;98813.25;4978263;28;20042;-87
2022/10/02 00:38:46;;;;;;;14.02;7.88;;;;;;;17.10;93.70;98815.63;5027008;28;20558;-87
2022/10/02 00:41:28;;;;;;;14.20;7.45;;;;;;;17.19;93.23;98825.72;4997775;28;20065;-87
2022/10/02 00:44:35;;;;;;;14.45;7.55;;;;;;;17.45;91.86;98835.16;5011408;28;20037;-87
2022/10/02 00:47:34;;;;;;;11.20;7.32;;;;;;;17.47;91.23;98847.66;4973092;28;20488;-87
2022/10/02 00:50:35;;;;;;;7.22;6.47;;;;;;;17.66;90.91;98848.56;5010866;28;20579;-87
2022/10/02 00:53:24;;;;;;;9.07;6.18;;;;;;;17.83;89.83;98849.84;5010870;28;20540;-87
2022/10/02 00:55:55;;;;;;;11.25;6.85;;;;;;;17.81;89.82;98872.84;5011100;28;20030;-87
2022/10/02 00:58:47;;;;;;;17.00;7.20;;;;;;;17.70;89.95;98874.03;5011666;28;20123;-87
2022/10/02 01:01:32;;;;;;;12.25;7.10;;;;;;;17.82;90.10;98877.28;5010523;28;20411;-87
2022/10/02 01:04:00;;;;;;;9.27;6.80;;;;;;;18.03;88.89;98872.94;5010638;28;20030;-87
2022/10/02 01:06:27;;;;;;;12.40;6.80;;;;;;;18.10;87.83;98889.94;5010634;28;20025;-87
2022/10/02 01:08:54;;;;;;;10.30;6.57;;;;;;;18.21;86.40;98894.81;5010675;28;20042;-87
2022/10/02 01:11:23;;;;;;;11.13;5.68;;;;;;;18.24;85.97;98882.69;5012227;28;20377;-87
2022/10/02 01:13:49;;;;;;;7.55;5.43;;;;;;;18.30;84.88;98869.75;5010859;28;20120;-87
2022/10/02 01:16:15;;;;;;;10.52;5.57;;;;;;;18.36;84.77;98885.16;5009892;28;20034;-87
2022/10/02 01:18:44;;;;;;;7.07;5.72;;;;;;;18.50;84.08;98884.34;5010554;28;20038;-87
2022/10/02 01:21:36;;;;;;;10.52;6.55;;;;;;;18.52;84.04;98889.59;5012282;28;20109;-87
2022/10/02 01:24:21;;;;;;;9.77;5.60;;;;;;;18.54;84.01;98884.34;5010840;28;20040;-87
2022/10/02 01:26:46;;;;;;;11.50;5.43;;;;;;;18.50;83.96;98884.34;5011691;28;20026;-87
2022/10/02 01:29:12;;;;;;;10.43;5.82;;;;;;;18.41;84.25;98875.44;5026594;28;20531;-87
2022/10/02 01:31:38;;;;;;;11.02;5.03;;;;;;;18.39;83.20;98866.53;5011249;28;20038;-87
2022/10/02 01:34:05;;;;;;;15.88;5.38;;;;;;;18.40;83.16;98861.69;5010717;28;20029;-88
2022/10/02 01:36:31;;;;;;;7.30;5.03;;;;;;;18.35;84.00;98855.22;5006365;28;20062;-88
2022/10/02 01:38:58;;;;;;;11.65;5.53;;;;;;;18.33;84.84;98848.34;5009586;28;20034;-88
2022/10/02 01:41:23;;;;;;;7.00;5.38;;;;;;;18.21;86.27;98844.69;5010983;28;20032;-87
2022/10/02 01:43:57;;;;;;;10.82;5.68;;;;;;;18.20;87.10;98853.56;5010757;28;20029;-87
2022/10/02 01:47:04;;;;;;;15.23;7.43;;;;;;;18.23;87.61;98858.44;5011840;28;20036;-86
2022/10/02 01:49:55;;;;;;;13.07;7.13;;;;;;;18.24;87.80;98860.06;4956004;28;20062;-87
2022/10/02 01:52:37;;;;;;;9.45;7.20;;;;;;;18.40;87.10;98864.50;5028350;28;20036;-87
2022/10/02 01:55:44;;;;;;;12.27;7.90;;;;;;;18.22;87.75;98868.13;5013918;28;20037;-87
2022/10/02 01:58:27;;;;;;;18.77;7.47;;;;;;;18.26;88.45;98880.28;5012918;28;20033;-87
2022/10/02 02:01:17;;;;;;;12.55;8.48;;;;;;;18.01;88.49;98883.84;5013873;28;20075;-87
2022/10/02 02:03:43;;;;;;;11.75;8.25;;;;;;;17.99;88.88;98903.22;5014565;28;20092;-87
2022/10/02 02:06:23;;;;;;;11.88;6.65;;;;;;;17.97;89.20;98914.13;5013379;28;20034;-88
2022/10/02 02:09:09;;;;;;;;;;;;;;;17.91;89.27;98933.50;5014183;28;20587;-87
2022/10/02 02:11:40;;;;;;;9.00;5.57;;;;;;;17.75;90.68;98925.38;5005760;28;19979;-87
2022/10/02 02:14:11;;;;;;;9.23;6.63;;;;;;;17.77;91.56;98931.44;5012855;28;20117;-88
2022/10/02 02:16:53;;;;;;;11.98;6.35;;;;;;;17.78;91.96;98935.06;5013312;28;20070;-87
2022/10/02 02:19:41;;;;;;;9.20;6.78;;;;;;;17.70;92.29;98924.94;5012283;28;20124;-87
2022/10/02 02:22:28;;;;;;;10.40;6.50;;;;;;;17.73;92.67;98939.06;5012708;28;20030;-87
2022/10/02 02:25:07;;;;;;;11.32;7.43;;;;;;;17.76;92.26;98932.66;5013780;28;20026;-87
2022/10/02 02:27:40;;;;;;;9.85;6.03;;;;;;;17.66;92.38;98914.41;5012795;28;20508;-87
2022/10/02 02:30:10;;;;;;;8.13;6.05;;;;;;;17.68;92.04;98922.50;5010856;28;20048;-87
2022/10/02 02:32:44;;;;;;;8.30;5.72;;;;;;;17.65;92.03;98928.94;5011301;28;20488;-87
2022/10/02 02:35:16;;;;;;;7.95;5.57;;;;;;;17.71;91.68;98941.50;5012505;28;20033;-87
2022/10/02 02:37:44;;;;;;;8.70;5.47;;;;;;;17.74;91.54;98935.06;5012674;28;20455;-87
2022/10/02 02:40:22;;;;;;;6.78;4.35;;;;;;;17.71;90.96;98933.00;5012736;28;20500;-87
2022/10/02 02:43:15;;;;;;;8.73;4.55;;;;;;;17.78;90.80;98944.38;5011761;28;20232;-88
2022/10/02 02:45:53;;;;;;;9.35;5.07;;;;;;;17.79;90.29;98934.66;5012444;28;20025;-87
2022/10/02 02:48:24;;;;;;;7.70;4.28;;;;;;;17.89;89.50;98946.44;5012529;28;20036;-87
2022/10/02 02:50:56;;;;;;;6.97;4.88;;;;;;;17.85;89.92;98948.41;5012773;28;20034;-87
2022/10/02 02:53:26;;;;;;;6.30;3.65;;;;;;;17.79;90.18;98947.97;5011727;28;20104;-87
2022/10/02 02:55:56;;;;;;;6.63;3.92;;;;;;;17.81;90.23;98963.38;5026016;28;20037;-87
2022/10/02 02:58:31;;;;;;;6.13;4.00;;;;;;;17.89;90.24;98986.84;5013691;28;20034;-87
2022/10/02 03:00:56;;;;;;;4.97;3.40;;;;;;;17.81;89.32;98980.34;5028727;28;20049;-87
2022/10/02 03:03:22;;;;;;;11.02;4.32;;;;;;;17.74;89.89;98976.66;5028326;28;20072;-87
2022/10/02 03:05:52;;;;;;;7.95;4.35;;;;;;;17.73;90.02;98992.81;5011707;28;20120;-95
2022/10/02 03:08:21;;;;;;;12.38;4.60;;;;;;;17.74;89.63;99005.75;4966613;28;1270757;-95
2022/10/02 03:10:50;;;;;;;7.10;3.88;;;;;;;17.75;89.88;99015.88;5013754;28;20126;-94
2022/10/02 03:13:45;;;;;;;8.48;5.03;;;;;;;17.75;90.13;99020.69;5013898;28;20491;-93
2022/10/02 03:16:26;;;;;;;7.35;4.32;;;;;;;17.76;89.67;99025.97;5002426;28;20443;-96
2022/10/02 03:19:09;;;;;;;7.32;3.97;;;;;;;17.75;89.46;99026.34;5015025;28;20032;-95
2022/10/02 03:21:45;;;;;;;4.75;4.00;;;;;;;17.72;89.01;99030.78;5013691;28;20032;-95
2022/10/02 03:24:32;;;;;;;9.68;3.72;;;;;;;17.78;88.23;99042.53;5013168;28;20038;-95
2022/10/02 03:27:08;;;;;;;5.18;3.42;;;;;;;17.80;86.92;99043.78;5013157;28;20034;-94
2022/10/02 03:29:48;;;;;;;5.40;3.35;;;;;;;17.73;86.19;99052.19;5013530;28;20500;-94
2022/10/02 03:32:16;;;;;;;5.82;3.05;;;;;;;17.77;86.28;99058.72;5013774;28;20030;-94
2022/10/02 03:34:46;;;;;;;3.75;2.78;;;;;;;17.71;86.33;99063.09;5012503;28;20116;-93
2022/10/02 03:37:11;;;;;;;4.75;3.03;;;;;;;17.73;86.22;99063.50;5013309;28;20085;-94
2022/10/02 03:39:44;;;;;;;3.60;2.63;;;;;;;17.71;85.89;99070.78;5012529;28;20079;-95
2022/10/02 03:42:12;;;;;;;6.63;3.92;;;;;;;17.69;85.04;99074.00;5014377;28;20022;-94
2022/10/02 03:44:37;;;;;;;8.77;3.28;;;;;;;17.69;84.13;99068.34;5013640;28;20018;-95
2022/10/02 03:47:03;;;;;;;6.20;3.03;;;;;;;17.79;82.18;99070.44;5013115;28;20018;-93
2022/10/02 03:49:29;;;;;;;6.20;2.75;;;;;;;17.74;80.07;99059.50;5013502;28;20040;-96
2022/10/02 03:51:54;;;;;;;4.00;2.10;;;;;;;17.71;78.08;99060.28;5013156;28;20026;-95
2022/10/02 03:54:21;;;;;;;3.20;2.90;;;;;;;17.76;78.12;99073.22;5012828;28;20022;-95
2022/10/02 03:56:58;;;;;;;8.48;2.47;;;;;;;17.65;77.54;99073.16;5013455;28;20022;-94
2022/10/02 03:59:34;;;;;;;3.67;2.13;;;;;;;17.62;75.61;99076.78;5013523;28;20056;-95
2022/10/02 04:02:04;;;;;;;3.67;1.73;;;;;;;17.53;74.60;99083.59;5030860;28;20072;-95
2022/10/02 04:05:10;;;;;;;2.70;1.55;;;;;;;17.50;72.21;99095.69;5016747;28;20030;-96
2022/10/02 04:07:40;;;;;;;6.97;1.30;;;;;;;17.28;70.68;99072.06;5011346;28;20034;-93
2022/10/02 04:10:12;;;;;;;7.72;1.50;;;;;;;17.40;69.87;99108.50;5011876;28;20114;-94
2022/10/02 04:12:44;;;;;;;2.15;1.00;;;;;;;17.35;69.81;99099.56;5029423;28;20068;-94
2022/10/02 04:15:22;;;;;;;2.95;1.40;;;;;;;17.30;70.22;99105.59;5012778;28;20029;-94
2022/10/02 04:18:14;;;;;;;3.95;1.60;;;;;;;17.17;71.12;99120.00;5012735;28;20026;-93
2022/10/02 04:20:50;;;;;;;8.07;2.20;;;;;;;17.05;71.77;99121.09;5012053;28;20022;-95
2022/10/02 04:23:22;;;;;;;6.43;1.60;;;;;;;17.01;72.12;99120.25;5010936;28;20037;-96
2022/10/02 04:25:54;;;;;;;2.88;1.52;;;;;;;16.96;72.10;99124.22;5012598;28;20523;-94
2022/10/02 04:28:24;;;;;;;2.65;2.10;;;;;;;16.74;72.73;99097.75;5013092;28;20032;-95
2022/10/02 04:30:54;;;;;;;4.47;2.53;;;;;;;16.83;71.86;99115.22;5012915;28;20025;-95
2022/10/02 04:33:23;;;;;;;4.50;2.60;;;;;;;16.89;72.17;99132.59;5013084;28;20115;-95
2022/10/02 04:36:23;;;;;;;6.63;3.30;;;;;;;16.90;72.05;99141.88;5012533;28;20030;-94
2022/10/02 04:39:11;;;;;;;5.47;3.72;;;;;;;16.87;72.02;99137.81;5014835;28;20021;-95
2022/10/02 04:41:56;;;;;;;4.03;3.63;;;;;;;16.80;72.35;99147.03;5013230;28;20497;-94
2022/10/02 04:44:34;;;;;;;6.97;4.30;;;;;;;16.81;72.58;99156.31;5012880;28;20496;-95
2022/10/02 04:47:23;;;;;;;3.70;3.40;;;;;;;16.83;72.74;99159.56;5012990;28;20143;-94
2022/10/02 04:49:59;;;;;;;5.60;4.10;;;;;;;16.89;72.58;99174.16;5013939;28;20084;-94
2022/10/02 04:53:00;;;;;;;9.07;4.03;;;;;;;16.89;71.95;99171.34;5012657;28;20511;-95
2022/10/02 04:55:52;;;;;;;9.10;4.10;;;;;;;16.98;71.48;99185.97;5012717;28;20030;-94
2022/10/02 04:58:32;;;;;;;5.53;4.80;;;;;;;17.06;71.47;99187.69;5010714;28;20077;-94
2022/10/02 05:01:24;;;;;;;5.20;4.72;;;;;;;17.07;71.01;99180.84;5026606;28;20033;-95
2022/10/02 05:04:20;;;;;;;7.00;4.57;;;;;;;17.20;69.24;99187.06;5010212;28;20528;-96
2022/10/02 05:07:04;;;;;;;4.97;4.50;;;;;;;17.35;69.39;99201.34;5014078;28;20117;-95
2022/10/02 05:09:51;;;;;;;4.90;4.47;;;;;;;17.38;69.25;99194.94;5012944;28;20081;-96
2022/10/02 05:12:35;;;;;;;7.93;4.25;;;;;;;17.47;68.38;99209.53;5013065;28;20032;-95
2022/10/02 05:15:25;;;;;;;5.07;4.57;;;;;;;17.54;68.06;99209.63;5014265;28;20053;-95
2022/10/02 05:18:06;;;;;;;4.15;3.78;;;;;;;17.61;67.87;99219.34;5014982;28;20068;-95
2022/10/02 05:20:32;;;;;;;4.78;4.30;;;;;;;17.71;66.76;99226.34;5014914;28;20038;-93
2022/10/02 05:23:18;;;;;;;5.13;4.47;;;;;;;17.73;66.96;99232.41;5013990;28;20117;-94
2022/10/02 05:26:02;;;;;;;5.53;4.50;;;;;;;17.82;66.72;99230.88;5022757;28;20043;-94
2022/10/02 05:28:37;;;;;;;6.72;4.60;;;;;;;17.95;64.88;99231.41;5010661;28;20029;-95
2022/10/02 05:31:11;;;;;;;6.82;3.92;;;;;;;17.93;64.30;99236.63;5012752;28;20030;-95
2022/10/02 05:33:55;;;;;;;9.48;4.72;;;;;;;17.89;64.91;99251.94;5013685;28;20076;-96
2022/10/02 05:36:53;;;;;;;6.10;5.45;;;;;;;17.95;64.72;99261.69;5013835;28;20057;-95
2022/10/02 05:39:29;;;;;;;6.25;5.50;;;;;;;18.00;64.85;99269.84;5012159;28;20033;-96
2022/10/02 05:42:30;;;;;;;4.82;4.43;;;;;;;18.27;63.23;99278.16;5012067;28;20026;-95
2022/10/02 05:45:21;;;;;;;5.38;4.97;;;;;;;18.42;62.75;99281.09;5013855;28;20014;-96
2022/10/02 05:47:49;;;;;;;4.95;4.45;;;;;;;18.55;63.24;99295.78;5012692;28;20033;-96
2022/10/02 05:50:24;;;;;;;4.70;4.30;;;;;;;18.71;61.85;99295.47;5013212;28;20022;-96
2022/10/02 05:53:07;;;;;;;8.90;5.03;;;;;;;18.74;62.26;99303.97;5013610;28;20217;-95
2022/10/02 05:55:45;;;;;;;4.00;3.70;;;;;;;18.74;61.69;99294.69;5017926;28;20037;-96
2022/10/02 05:58:21;;;;;;;7.32;3.83;;;;;;;18.50;62.76;99297.75;5020120;28;20036;-95
2022/10/02 06:01:05;;;;;;;7.15;3.97;;;;;;;18.46;63.76;99305.41;5008758;28;20394;-96
2022/10/02 06:03:50;;;;;;;5.47;4.28;;;;;;;18.53;63.56;99307.47;5006752;28;20041;-96
2022/10/02 06:06:25;;;;;;;4.38;4.00;;;;;;;18.38;64.17;99310.22;5026607;28;20021;-96
2022/10/02 06:08:59;;;;;;;4.63;4.22;;;;;;;18.19;64.74;99299.13;5016651;28;20108;-92
2022/10/02 06:12:03;;;;;;;7.88;4.60;;;;;;;18.26;65.00;99302.03;5018753;28;20030;-96
2022/10/02 06:14:45;;;;;;;5.88;4.05;;;;;;;18.31;64.66;99317.84;5017056;28;20034;-96
2022/10/02 06:17:23;;;;;;;5.90;3.90;;;;;;;18.02;64.78;99290.06;5021673;28;20026;-96
2022/10/02 06:20:22;;;;;;;5.03;3.80;;;;;;;18.27;64.78;99322.63;4983837;28;20038;-95
2022/10/02 06:23:08;;;;;;;4.65;4.25;;;;;;;18.45;63.51;99298.13;5027659;28;20087;-96
2022/10/02 06:25:57;;;;;;;8.02;4.22;;;;;;;18.71;62.45;99278.47;5019652;28;20030;-94
2022/10/02 06:29:10;;;;;;;4.72;4.03;;;;;;;18.96;60.44;99295.59;5025914;28;20089;-94
2022/10/02 06:32:00;;;;;;;5.80;4.22;;;;;;;19.06;59.58;99299.72;5018541;28;20040;-95
2022/10/02 06:34:25;;;;;;;3.72;3.15;;;;;;;18.96;55.98;99289.94;5018580;28;20451;-93
2022/10/02 06:37:10;;;;;;;3.65;3.20;;;;;;;19.08;56.02;99297.34;5010385;28;20038;-95
2022/10/02 06:39:47;;;;;;;4.13;3.20;;;;;;;19.16;55.90;99301.81;5009365;28;20041;-95
2022/10/02 06:42:48;;;;;;;4.07;3.03;;;;;;;19.46;55.88;99311.25;5031040;28;20097;-94
2022/10/02 06:45:57;;;;;;;9.13;3.05;;;;;;;19.26;53.66;99268.22;5038149;28;20026;-94
2022/10/02 06:48:37;;;;;;;5.60;3.00;;;;;;;19.61;53.76;99289.41;4967202;28;20026;-94
2022/10/02 06:51:21;;;;;;;9.98;3.05;;;;;;;19.72;53.79;99306.44;5009771;28;20041;-95
2022/10/02 06:53:55;;;;;;;3.03;2.60;;;;;;;19.89;53.06;99304.84;5010462;28;20041;-95
2022/10/02 06:56:57;;;;;;;3.55;2.92;;;;;;;19.89;53.30;99293.50;5018373;28;20049;-95
2022/10/02 06:59:44;;;;;;;2.75;2.55;;;;;;;20.00;50.79;99305.72;5013644;28;20021;-94
2022/10/02 07:02:31;;;;;;;4.95;3.72;;;;;;;20.15;51.29;99323.59;5021295;28;20025;-95
2022/10/02 07:05:16;;;;;;;5.93;3.15;;;;;;;20.12;51.97;99332.91;5025442;28;20048;-94
2022/10/02 07:08:03;;;;;;;4.30;2.60;;;;;;;20.33;50.01;99334.13;4968616;28;20129;-95
2022/10/02 07:10:34;;;;;;;5.95;2.45;;;;;;;20.14;49.41;99336.16;5013238;28;20099;-94
2022/10/02 07:13:24;;;;;;;4.22;2.75;;;;;;;20.12;49.39;99361.31;5030760;28;20037;-94
2022/10/02 07:15:53;;;;;;;;;;;;;;;20.20;48.40;99345.88;5031388;28;20484;-95
2022/10/02 07:18:21;;;;;;;5.70;2.90;;;;;;;20.21;48.47;99369.44;5013691;28;19917;-96
2022/10/02 07:21:12;;;;;;;4.22;2.97;;;;;;;20.19;47.97;99355.63;5011320;28;20041;-94
2022/10/02 07:24:03;;;;;;;3.78;2.78;;;;;;;20.20;48.09;99357.25;5022238;28;20061;-95
2022/10/02 07:26:48;;;;;;;9.20;2.75;;;;;;;20.20;47.94;99360.09;5021519;28;20112;-96
2022/10/02 07:29:13;;;;;;;12.98;2.90;;;;;;;20.41;47.23;99371.88;5028971;28;20041;-94
2022/10/02 07:31:41;;;;;;;13.30;2.80;;;;;;;20.45;47.71;99381.22;5010629;28;20560;-95
2022/10/02 07:34:25;;;;;;;4.22;3.00;;;;;;;20.43;46.95;99363.78;5026811;28;20064;-94
2022/10/02 07:37:26;;;;;;;3.97;2.17;;;;;;;20.66;45.90;99376.75;5013046;28;20504;-95
2022/10/02 07:40:29;;;;;;;8.52;3.85;;;;;;;20.84;45.23;99374.72;5012886;28;20032;-96
2022/10/02 07:43:31;;;;;;;4.13;2.70;;;;;;;20.86;45.03;99372.28;5015208;28;20034;-96
2022/10/02 07:46:22;;;;;;;4.95;2.60;;;;;;;20.57;45.16;99389.34;5009876;28;20397;-91
2022/10/02 07:48:59;;;;;;;4.32;2.17;;;;;;;20.72;44.32;99377.97;5001305;28;20096;-94
2022/10/02 07:51:46;;;;;;;7.63;2.58;;;;;;;20.97;44.23;99385.69;5012770;28;20069;-96
2022/10/02 07:54:30;;;;;;;5.38;3.20;;;;;;;20.87;43.66;99379.59;5017988;28;20037;-96
2022/10/02 07:57:01;;;;;;;9.48;2.90;;;;;;;20.93;43.54;99393.41;5014917;28;20038;-96
2022/10/02 07:59:30;;;;;;;9.77;2.67;;;;;;;20.70;43.24;99369.88;4998136;28;20022;-96
2022/10/02 08:01:58;;;;;;;10.50;2.60;;;;;;;20.86;43.98;99394.22;5015020;28;20045;-96
2022/10/02 08:04:31;;;;;;;4.85;2.60;;;;;;;20.83;43.07;99395.06;5013650;28;20034;-96
2022/10/02 08:07:02;;;;;;;4.72;2.80;;;;;;;21.20;43.55;99364.50;5015746;28;20060;-96
2022/10/02 08:09:40;;;;;;;5.60;2.53;;;;;;;21.44;43.17;99388.41;5021887;28;20061;-96
2022/10/02 08:12:27;;;;;;;10.38;2.30;;;;;;;21.45;42.64;99393.69;5018271;28;20072;-96
2022/10/02 08:14:54;;;;;;;8.77;2.72;;;;;;;21.51;41.83;99367.66;5017956;28;20040;-95
2022/10/02 08:17:41;;;;;;;3.63;2.40;;;;;;;21.28;42.70;99386.81;5020353;28;20026;-96
2022/10/02 08:20:38;;;;;;;6.97;3.17;;;;;;;21.65;42.02;99372.47;5014524;28;20037;-96
2022/10/02 08:23:19;;;;;;;3.72;2.67;;;;;;;21.71;41.90;99383.03;5024278;28;20033;-96
2022/10/02 08:25:56;;;;;;;4.13;2.20;;;;;;;21.29;42.02;99368.53;5015707;28;20026;-96
2022/10/02 08:28:31;;;;;;;2.53;2.33;;;;;;;21.56;41.85;99370.06;5017822;28;20026;-95
2022/10/02 08:30:57;;;;;;;8.70;2.78;;;;;;;21.59;41.51;99377.78;5014342;28;20488;-95
2022/10/02 08:33:23;;;;;;;8.38;2.33;;;;;;;21.59;41.66;99349.31;5014232;28;20026;-96
2022/10/02 08:36:00;;;;;;;8.48;2.30;;;;;;;21.70;41.20;99380.63;5016803;28;20033;-95
2022/10/02 08:38:59;;;;;;;4.38;2.13;;;;;;;21.96;41.36;99369.91;5014416;28;20037;-96
2022/10/02 08:41:43;;;;;;;6.10;2.67;;;;;;;21.84;41.39;99383.41;5015137;28;20025;-96
2022/10/02 08:44:29;;;;;;;2.60;2.10;;;;;;;21.89;40.23;99379.31;5014360;28;20022;-96
2022/10/02 08:46:57;;;;;;;3.83;2.40;;;;;;;22.02;40.89;99371.91;5030481;28;20044;-95
2022/10/02 08:49:53;;;;;;;3.00;1.95;;;;;;;22.07;40.39;99409.69;5014690;28;20488;-95
2022/10/02 08:52:38;;;;;;;3.72;2.55;;;;;;;22.09;40.46;99361.72;5017122;28;20083;-95
2022/10/02 08:55:26;;;;;;;5.88;2.13;;;;;;;21.87;40.20;99364.69;5017242;28;20061;-96
2022/10/02 08:58:21;;;;;;;7.60;2.10;;;;;;;22.21;38.74;99358.38;5015788;28;20484;-94
2022/10/02 09:00:56;;;;;;;20.48;2.65;;;;;;;21.84;38.84;99368.34;5015464;28;20030;-96
2022/10/02 09:03:35;;;;;;;3.63;1.60;;;;;;;22.15;38.72;99340.09;5018925;28;20096;-96
2022/10/02 09:06:33;;;;;;;10.38;2.53;;;;;;;22.11;37.12;99357.19;5019970;28;20032;-94
2022/10/02 09:09:23;;;;;;;6.07;2.17;;;;;;;22.21;38.18;99369.75;5016782;28;20431;-96
2022/10/02 09:12:11;;;;;;;3.67;1.77;;;;;;;22.05;37.75;99341.78;5016326;28;20030;-96
2022/10/02 09:14:42;;;;;;;10.70;3.50;;;;;;;22.19;36.79;99346.56;5022180;28;20037;-95
2022/10/02 09:17:29;;;;;;;5.38;2.00;;;;;;;22.34;36.99;99332.22;5019333;28;20041;-94
2022/10/02 09:20:39;;;;;;;3.65;1.70;;;;;;;22.16;37.26;99333.16;5017205;28;20527;-96
2022/10/02 09:23:11;;;;;;;9.15;2.28;;;;;;;22.35;35.99;99328.16;5000050;28;20058;-94
2022/10/02 09:25:52;;;;;;;2.90;2.10;;;;;;;22.46;36.30;99303.22;4996260;28;20029;-96
2022/10/02 09:32:33;;;;;;;12.32;2.80;;;;;;;22.54;35.64;99319.03;4997619;28;20094;-96
2022/10/02 09:35:33;;;;;;;4.43;2.10;;;;;;;22.73;36.63;99331.09;5009797;28;20459;-95
2022/10/02 09:38:36;;;;;;;4.38;1.95;;;;;;;22.91;35.50;99308.09;4993838;28;20124;-96
2022/10/02 09:42:07;;;;;;;2.80;1.55;;;;;;;22.85;35.19;99324.88;5022747;28;20041;-95
2022/10/02 09:44:57;;;;;;;4.97;1.70;;;;;;;22.63;34.03;99332.81;5008057;23;20487;-68
2022/10/02 09:47:43;;;;;;;3.63;2.00;;;;;;;22.78;34.34;99332.69;5001041;28;20030;-70
2022/10/02 09:50:26;;;;;;;5.53;1.20;;;;;;;22.49;34.70;99333.75;4991615;28;20022;-71
2022/10/02 09:53:43;;;;;;;3.13;1.60;;;;;;;22.70;34.81;99329.09;5000097;28;20033;-70
2022/10/02 09:56:35;;;;;;;4.78;1.42;;;;;;;22.92;34.72;99337.41;5003400;28;20112;-70
2022/10/02 09:59:25;;;;;;;2.25;1.20;;;;;;;23.21;32.63;99342.81;5010214;28;20045;-72
2022/10/02 10:02:09;;;;;;;9.55;2.25;;;;;;;23.53;32.65;99348.16;4994145;28;20417;-72
2022/10/02 10:04:45;;;;;;;1.30;1.20;;;;;;;23.33;32.64;99356.56;4990417;28;20505;-73
2022/10/02 10:07:10;;;;;;;5.03;1.83;;;;;;;23.33;32.50;99350.03;5009585;28;20026;-72
2022/10/02 10:09:58;;;;;;;4.13;1.42;;;;;;;22.99;33.56;99360.16;5019090;28;20485;-70
2022/10/02 10:13:05;;;;;;;3.05;1.40;;;;;;;23.07;33.92;99370.28;5011013;28;20447;-70
2022/10/02 10:16:10;;;;;;;1.70;1.60;;;;;;;23.14;33.49;99369.38;5018423;28;20029;-69
2022/10/02 10:19:07;;;;;;;7.57;1.70;;;;;;;23.39;33.14;99369.13;5031481;28;20025;-69
2022/10/02 10:21:57;;;;;;;5.97;1.80;;;;;;;23.27;33.11;99378.22;5034555;28;20025;-68
2022/10/02 10:24:51;;;;;;;1.70;1.60;;;;;;;22.93;33.40;99391.19;5008374;28;20038;-70
2022/10/02 10:27:29;;;;;;;2.65;1.70;;;;;;;22.74;33.19;99377.50;5013212;28;20026;-70
2022/10/02 10:30:31;;;;;;;9.30;1.90;;;;;;;22.89;33.91;99375.34;5012824;28;20037;-69
2022/10/02 10:33:40;;;;;;;6.32;1.48;;;;;;;22.89;33.94;99375.34;5013364;28;20074;-69
2022/10/02 10:40:03;;;;;;;1.95;1.50;;;;;;;22.49;34.40;99385.03;4987335;28;20081;-72
2022/10/02 10:42:56;;;;;;;4.22;1.45;;;;;;;22.59;34.50;99380.47;4993533;28;20033;-68
2022/10/02 10:45:37;;;;;;;1.60;1.27;;;;;;;22.94;33.44;99378.53;4994908;28;20031;-70
2022/10/02 10:48:33;;;;;;;1.50;1.38;;;;;;;23.16;33.70;99371.78;5000021;28;20029;-73
2022/10/02 10:51:24;;;;;;;3.47;1.42;;;;;;;22.82;33.84;99371.34;5013358;28;20053;-77
2022/10/02 10:54:05;;;;;;;4.18;1.58;;;;;;;22.99;33.30;99368.72;5013501;28;20032;-74
2022/10/02 10:56:35;;;;;;;4.53;1.20;;;;;;;22.97;33.21;99371.97;5012919;28;20030;-75
2022/10/02 10:59:19;;;;;;;3.33;1.20;;;;;;;23.14;33.06;99370.19;5014165;28;20026;-75
2022/10/02 11:02:22;;;;;;;3.35;1.20;;;;;;;23.14;32.89;99363.69;5010796;28;20473;-74
2022/10/02 11:05:05;;;;;;;12.73;1.55;;;;;;;23.33;32.13;99358.59;5010727;28;20094;-75
2022/10/02 11:07:39;;;;;;;25.52;2.33;;;;;;;23.18;32.09;99346.53;5027889;28;20037;-75
2022/10/02 11:10:17;;;;;;;10.63;1.38;;;;;;;23.27;32.21;99350.53;5010307;28;20400;-75
2022/10/02 11:13:22;;;;;;;5.95;1.20;;;;;;;23.27;31.81;99349.69;5013906;28;20030;-75
2022/10/02 11:16:17;;;;;;;4.30;0.93;;;;;;;23.29;32.08;99358.66;5012571;28;20026;-75
2022/10/02 11:19:13;;;;;;;1.25;0.90;;;;;;;23.63;32.70;99349.25;4991837;28;20041;-74
2022/10/02 11:21:41;;;;;;;1.23;1.05;;;;;;;23.65;32.62;99358.22;5013788;28;20413;-75
2022/10/02 11:24:17;;;;;;;10.00;1.10;;;;;;;23.54;31.58;99349.00;5012466;28;20049;-74
2022/10/02 11:27:09;;;;;;;1.02;1.00;;;;;;;23.42;31.74;99359.72;4997018;28;20539;-74
2022/10/02 11:30:09;;;;;;;4.30;1.65;;;;;;;23.51;31.80;99361.22;4992669;28;20023;-74
2022/10/02 11:32:37;;;;;;;2.90;1.55;;;;;;;23.64;31.47;99344.38;4992747;28;20022;-74
2022/10/02 11:35:25;;;;;;;2.03;1.60;;;;;;;23.74;31.71;99365.44;4993825;28;20437;-74
2022/10/02 11:37:59;;;;;;;3.72;1.65;;;;;;;23.90;31.67;99365.63;4963827;28;20053;-74
2022/10/02 11:40:53;;;;;;;8.57;2.40;;;;;;;23.93;30.98;99373.34;4993985;28;20043;-72
2022/10/02 11:43:42;;;;;;;2.90;1.30;;;;;;;23.73;31.37;99375.25;5010355;28;20017;-73
2022/10/02 11:47:00;;;;;;;1.02;1.00;;;;;;;24.10;31.01;99382.91;5013362;28;20084;-73
2022/10/02 11:49:41;;;;;;;2.85;1.60;;;;;;;23.90;31.00;99359.94;4974018;28;20049;-73
2022/10/02 11:52:21;;;;;;;4.35;3.13;;;;;;;23.85;31.02;99377.53;5005020;28;20029;-73
2022/10/02 11:54:52;;;;;;;2.72;2.13;;;;;;;23.69;30.64;99363.84;5011937;28;20036;-73
2022/10/02 11:57:37;;;;;;;4.85;1.58;;;;;;;23.98;30.89;99361.41;4993349;28;20027;-72
2022/10/02 12:00:11;;;;;;;4.88;2.40;;;;;;;23.80;30.32;99369.44;5003264;28;20081;-73
2022/10/02 12:02:43;;;;;;;3.90;2.92;;;;;;;23.58;31.22;99366.88;5008129;28;20123;-73
2022/10/02 12:05:33;;;;;;;5.10;3.17;;;;;;;23.37;31.92;99365.09;5009829;28;20022;-72
2022/10/02 12:08:33;;;;;;;2.92;1.33;;;;;;;23.69;31.49;99364.69;5015442;28;20021;-73
2022/10/02 12:11:25;;;;;;;4.93;1.77;;;;;;;23.56;31.42;99364.44;5015721;28;20515;-73
2022/10/02 12:14:14;;;;;;;5.03;2.28;;;;;;;23.35;31.52;99365.50;5018694;28;20022;-73
2022/10/02 12:16:47;;;;;;;1.90;1.20;;;;;;;23.78;31.43;99357.66;5011705;28;20416;-72
2022/10/02 12:19:34;;;;;;;1.55;1.45;;;;;;;24.08;30.53;99344.59;4998063;28;20022;-73
2022/10/02 12:28:56;;;;;;;11.15;1.65;;;;;;;23.78;30.08;99349.09;5004108;28;20041;-73
2022/10/02 12:31:35;;;;;;;2.45;1.90;;;;;;;23.70;30.44;99348.34;5004584;28;21834;-73
2022/10/02 12:34:39;;;;;;;3.17;1.67;;;;;;;23.88;30.81;99342.38;5008007;28;20428;-73
2022/10/02 12:37:28;;;;;;;2.53;2.20;;;;;;;23.97;31.09;99342.66;5008146;28;20057;-73
2022/10/02 12:40:22;;;;;;;2.63;1.98;;;;;;;23.50;31.07;99345.34;5007749;28;20460;-73
2022/10/02 12:43:31;;;;;;;2.45;1.70;;;;;;;23.41;31.34;99358.09;5009026;28;20029;-72
2022/10/02 12:46:12;;;;;;;5.07;3.05;;;;;;;23.79;30.96;99367.84;5003100;28;20042;-72
2022/10/02 12:48:49;;;;;;;8.43;2.95;;;;;;;23.55;30.56;99362.03;5002117;28;20431;-73
2022/10/02 12:51:35;;;;;;;3.28;2.10;;;;;;;23.50;30.73;99360.44;5006190;28;20080;-72
2022/10/02 12:54:13;;;;;;;5.35;3.35;;;;;;;23.27;31.52;99367.63;5009935;28;20565;-72
2022/10/02 12:57:50;;;;;;;3.03;2.35;;;;;;;23.22;31.41;99372.97;5008776;28;20084;-73